Time;durP1;ratioP1;P1;durP2;ratioP2;P2;SDS_P1;SDS_P2;PMS_P1;PMS_P2;Temp;Humidity;BMP_temperature;BMP_pressure;BME280_temperature;BME280_humidity;BME280_pressure;Samples;Min_cycle;Max_cycle;Signal;HPM_P1;HPM_P2
2023/07/28 00:00:32;;;;;;;5.83;3.73;;;18.70;78.40;;;;;;5067951;28;20254;-74
2023/07/28 00:02:58;;;;;;;5.00;3.03;;;18.70;78.30;;;;;;5067647;28;20231;-73
2023/07/28 00:05:23;;;;;;;4.50;3.50;;;18.70;78.30;;;;;;5067583;28;20271;-73
2023/07/28 00:07:49;;;;;;;6.17;3.50;;;18.60;78.40;;;;;;5064765;28;20551;-74
2023/07/28 00:10:15;;;;;;;4.13;3.03;;;18.60;78.40;;;;;;5064245;28;20752;-73
2023/07/28 00:12:40;;;;;;;5.00;3.40;;;18.60;78.90;;;;;;5063209;28;20187;-73
2023/07/28 00:15:06;;;;;;;5.60;3.90;;;18.60;78.90;;;;;;5069801;28;20257;-75
2023/07/28 00:17:31;;;;;;;6.40;3.67;;;18.50;78.70;;;;;;5066974;28;20230;-72
2023/07/28 00:19:57;;;;;;;8.03;3.73;;;18.50;78.70;;;;;;5068350;28;20188;-74
2023/07/28 00:22:23;;;;;;;5.00;3.30;;;18.50;78.90;;;;;;5064423;28;20605;-73
2023/07/28 00:24:48;;;;;;;5.10;3.53;;;18.40;78.90;;;;;;5064611;28;20674;-72
2023/07/28 00:27:14;;;;;;;4.87;2.90;;;18.40;78.90;;;;;;5063703;28;20267;-73
2023/07/28 00:29:41;;;;;;;5.50;3.80;;;18.50;78.70;;;;;;5069179;28;20216;-72
2023/07/28 00:32:07;;;;;;;5.47;3.43;;;18.50;78.60;;;;;;5058991;28;20518;-72
2023/07/28 00:34:33;;;;;;;5.90;3.60;;;18.50;78.30;;;;;;5068967;28;20487;-71
2023/07/28 00:36:58;;;;;;;9.20;4.07;;;18.50;78.30;;;;;;5069243;28;20947;-74
2023/07/28 00:39:24;;;;;;;5.00;3.40;;;18.50;78.60;;;;;;5069335;28;20200;-74
2023/07/28 00:41:49;;;;;;;4.67;3.33;;;18.40;78.60;;;;;;5062090;28;20204;-74
2023/07/28 00:44:16;;;;;;;7.03;3.73;;;18.40;78.90;;;;;;5068670;28;20207;-74
2023/07/28 00:46:43;;;;;;;6.63;3.80;;;18.40;78.90;;;;;;5068985;28;20294;-75
2023/07/28 00:49:08;;;;;;;4.50;3.57;;;18.30;79.00;;;;;;5069427;28;20473;-74
2023/07/28 00:51:36;;;;;;;5.77;3.67;;;18.30;79.00;;;;;;5064869;28;20508;-75
2023/07/28 00:54:04;;;;;;;6.73;3.50;;;18.20;79.20;;;;;;5065677;28;20203;-74
2023/07/28 00:56:29;;;;;;;4.80;3.37;;;18.30;79.30;;;;;;5068649;28;21002;-75
2023/07/28 00:58:55;;;;;;;4.50;3.03;;;18.20;79.30;;;;;;5068072;28;20434;-76
2023/07/28 01:01:22;;;;;;;6.73;3.40;;;18.20;79.30;;;;;;5064957;28;20246;-74
2023/07/28 01:03:49;;;;;;;5.30;3.23;;;18.20;79.50;;;;;;5069333;28;20426;-75
2023/07/28 01:06:43;;;;;;;7.33;3.47;;;18.20;79.50;;;;;;5065642;28;20438;-74
2023/07/28 01:09:14;;;;;;;5.73;3.80;;;18.20;79.30;;;;;;5071296;28;20464;-75
2023/07/28 01:11:56;;;;;;;4.40;3.60;;;18.20;79.20;;;;;;5063444;28;20462;-75
2023/07/28 01:14:22;;;;;;;6.90;4.40;;;18.20;79.20;;;;;;5064991;28;20472;-73
2023/07/28 01:16:47;;;;;;;5.27;3.60;;;18.30;79.00;;;;;;5069853;28;21019;-74
2023/07/28 01:19:19;;;;;;;6.20;4.00;;;18.30;78.90;;;;;;5070408;28;20248;-76
2023/07/28 01:21:56;;;;;;;5.77;3.40;;;18.30;78.90;;;;;;5061056;28;20666;-76
2023/07/28 01:24:25;;;;;;;8.50;3.60;;;18.30;78.70;;;;;;5069731;28;20441;-75
2023/07/28 01:26:51;;;;;;;5.57;3.50;;;18.20;78.90;;;;;;5050864;28;20431;-75
2023/07/28 01:29:19;;;;;;;7.20;3.33;;;18.20;79.00;;;;;;5069377;28;20432;-75
2023/07/28 01:31:47;;;;;;;5.70;3.23;;;18.20;79.20;;;;;;5063922;28;20208;-73
2023/07/28 01:34:13;;;;;;;5.57;3.70;;;18.30;79.00;;;;;;5069597;28;20551;-73
2023/07/28 01:36:38;;;;;;;5.77;3.67;;;18.30;78.90;;;;;;5067553;28;20473;-73
2023/07/28 01:39:04;;;;;;;5.20;3.20;;;18.30;78.70;;;;;;5073165;28;20188;-75
2023/07/28 01:41:30;;;;;;;4.70;3.27;;;18.30;78.90;;;;;;5062142;28;20208;-75
2023/07/28 01:43:55;;;;;;;6.83;3.73;;;18.30;78.70;;;;;;5070980;28;20219;-73
2023/07/28 01:46:22;;;;;;;5.57;3.60;;;18.30;79.00;;;;;;5068990;28;20200;-73
2023/07/28 01:48:47;;;;;;;7.20;3.87;;;18.20;79.00;;;;;;5065026;28;20528;-73
2023/07/28 01:51:13;;;;;;;5.23;3.60;;;18.20;79.00;;;;;;5065528;28;20605;-73
2023/07/28 01:53:39;;;;;;;4.30;3.43;;;18.20;79.20;;;;;;5068930;28;20274;-73
2023/07/28 01:56:04;;;;;;;6.70;3.63;;;18.20;79.20;;;;;;5055030;28;20262;-73
2023/07/28 01:58:30;;;;;;;5.27;3.00;;;18.20;79.30;;;;;;5065700;28;20192;-72
2023/07/28 02:00:55;;;;;;;7.97;3.80;;;18.10;79.30;;;;;;5062419;28;20212;-71
2023/07/28 02:03:21;;;;;;;6.27;3.63;;;18.10;79.50;;;;;;5068600;28;20185;-73
2023/07/28 02:05:47;;;;;;;4.70;3.10;;;18.10;79.50;;;;;;5068304;28;20192;-73
2023/07/28 02:08:12;;;;;;;5.37;3.40;;;18.10;79.50;;;;;;5062186;28;20253;-73
2023/07/28 02:10:38;;;;;;;4.87;3.57;;;18.10;79.60;;;;;;5063554;28;20204;-72
2023/07/28 02:13:04;;;;;;;6.03;3.40;;;18.10;79.70;;;;;;5067565;28;20187;-74
2023/07/28 02:15:29;;;;;;;6.03;3.70;;;18.10;79.90;;;;;;5067201;28;20225;-73
2023/07/28 02:17:55;;;;;;;4.37;3.00;;;18.10;79.70;;;;;;5068627;28;20179;-73
2023/07/28 02:20:20;;;;;;;10.13;3.50;;;18.10;79.60;;;;;;5068650;28;20215;-72
2023/07/28 02:22:46;;;;;;;4.23;3.13;;;18.10;79.60;;;;;;5071660;28;20662;-73
2023/07/28 02:25:12;;;;;;;5.37;3.00;;;18.00;79.90;;;;;;5069149;28;20802;-73
2023/07/28 02:27:38;;;;;;;8.20;3.60;;;18.00;80.20;;;;;;5071897;28;20430;-73
2023/07/28 02:30:05;;;;;;;6.30;3.40;;;18.10;80.20;;;;;;5068906;28;20208;-72
2023/07/28 02:32:31;;;;;;;5.20;3.50;;;18.10;80.20;;;;;;5072897;28;20638;-73
2023/07/28 02:34:57;;;;;;;6.37;3.80;;;18.20;79.90;;;;;;5068577;28;20550;-72
2023/07/28 02:37:24;;;;;;;5.60;4.10;;;18.20;79.50;;;;;;5072166;28;20423;-75
2023/07/28 02:39:49;;;;;;;6.00;3.10;;;18.10;79.90;;;;;;5070212;28;20452;-73
2023/07/28 02:42:15;;;;;;;6.67;3.70;;;18.10;80.00;;;;;;5065628;28;20446;-72
2023/07/28 02:44:40;;;;;;;5.80;3.20;;;18.20;79.70;;;;;;5074842;28;20276;-73
2023/07/28 02:47:06;;;;;;;4.50;3.47;;;18.30;79.60;;;;;;5072272;28;20279;-74
2023/07/28 02:49:32;;;;;;;4.30;2.97;;;18.30;79.30;;;;;;5071340;28;20542;-73
2023/07/28 02:51:58;;;;;;;5.60;3.53;;;18.30;79.50;;;;;;5063651;28;20207;-72
2023/07/28 02:54:25;;;;;;;4.30;2.90;;;18.30;79.30;;;;;;5070833;28;20308;-71
2023/07/28 02:56:50;;;;;;;11.33;3.50;;;18.30;79.50;;;;;;5071705;28;20473;-71
2023/07/28 02:59:16;;;;;;;5.17;3.37;;;18.30;79.50;;;;;;5071755;28;20775;-72
2023/07/28 03:01:42;;;;;;;6.43;3.33;;;18.30;79.60;;;;;;5063926;28;20213;-71
2023/07/28 03:04:07;;;;;;;4.63;3.00;;;18.30;79.60;;;;;;5071064;28;20199;-70
2023/07/28 03:06:33;;;;;;;4.90;3.30;;;18.30;79.50;;;;;;5070678;28;20634;-71
2023/07/28 03:08:59;;;;;;;6.37;4.10;;;18.30;79.60;;;;;;5071379;28;20204;-74
2023/07/28 03:11:25;;;;;;;4.83;3.13;;;18.30;79.60;;;;;;5068109;28;20596;-73
2023/07/28 03:13:50;;;;;;;5.87;3.53;;;18.40;79.60;;;;;;5068541;28;20428;-73
2023/07/28 03:16:16;;;;;;;4.80;3.10;;;18.30;79.30;;;;;;5069529;28;20247;-73
2023/07/28 03:18:41;;;;;;;4.33;3.33;;;18.20;79.60;;;;;;5069051;28;20253;-73
2023/07/28 03:21:09;;;;;;;8.03;3.40;;;18.20;79.90;;;;;;5066870;28;20250;-73
2023/07/28 03:23:35;;;;;;;5.30;3.80;;;18.30;79.50;;;;;;5068774;28;20434;-73
2023/07/28 03:26:01;;;;;;;6.17;4.23;;;18.30;79.70;;;;;;5061470;28;20439;-72
2023/07/28 03:28:26;;;;;;;8.27;4.00;;;18.30;79.70;;;;;;5067527;28;20898;-72
2023/07/28 03:30:52;;;;;;;4.20;3.60;;;18.40;79.60;;;;;;5064767;28;20217;-71
2023/07/28 03:33:18;;;;;;;6.70;3.43;;;18.30;79.70;;;;;;5066967;28;20185;-73
2023/07/28 03:35:43;;;;;;;9.20;4.20;;;18.30;79.90;;;;;;5069088;28;20587;-71
2023/07/28 03:38:09;;;;;;;6.57;3.77;;;18.30;80.00;;;;;;5070524;28;20208;-72
2023/07/28 03:40:34;;;;;;;7.17;5.00;;;18.30;80.20;;;;;;5063342;28;20686;-72
2023/07/28 03:43:00;;;;;;;9.33;4.73;;;18.10;80.60;;;;;;5063614;28;20265;-73
2023/07/28 03:45:26;;;;;;;8.40;5.00;;;18.10;81.10;;;;;;5070789;28;20199;-73
2023/07/28 03:47:51;;;;;;;7.50;4.17;;;18.10;81.10;;;;;;5070280;28;20225;-73
2023/07/28 03:50:17;;;;;;;6.30;3.73;;;18.10;80.80;;;;;;5066894;28;20209;-71
2023/07/28 03:52:42;;;;;;;7.60;4.13;;;18.10;81.10;;;;;;5070282;28;20188;-72
2023/07/28 03:55:08;;;;;;;7.00;4.30;;;18.20;81.10;;;;;;5068003;28;20240;-72
2023/07/28 03:57:34;;;;;;;6.07;3.53;;;18.20;80.80;;;;;;5067503;28;20208;-72
2023/07/28 03:59:59;;;;;;;6.43;3.60;;;18.30;80.80;;;;;;5067064;28;20219;-72
2023/07/28 04:02:25;;;;;;;9.47;3.80;;;18.30;80.50;;;;;;5064330;28;20563;-71
2023/07/28 04:04:55;;;;;;;5.67;3.80;;;18.40;80.00;;;;;;5069952;28;20194;-71
2023/07/28 04:07:20;;;;;;;7.50;3.60;;;18.50;79.30;;;;;;5068143;28;20232;-72
2023/07/28 04:09:46;;;;;;;6.20;3.30;;;18.60;78.60;;;;;;5069062;28;20471;-72
2023/07/28 04:12:12;;;;;;;5.40;3.73;;;18.60;77.80;;;;;;5060418;28;20200;-71
2023/07/28 04:14:37;;;;;;;5.67;4.20;;;18.70;77.60;;;;;;5066701;28;20218;-73
2023/07/28 04:17:03;;;;;;;5.47;3.93;;;18.80;77.10;;;;;;5066674;28;20203;-74
2023/07/28 04:19:29;;;;;;;7.07;3.97;;;18.70;77.60;;;;;;5069181;28;20194;-74
2023/07/28 04:21:56;;;;;;;12.47;4.20;;;18.80;77.80;;;;;;5068314;28;20216;-73
2023/07/28 04:24:21;;;;;;;5.77;4.00;;;18.80;77.70;;;;;;5066237;28;20436;-72
2023/07/28 04:26:50;;;;;;;6.10;3.70;;;18.80;77.80;;;;;;5066910;28;20943;-72
2023/07/28 04:29:16;;;;;;;5.93;3.53;;;18.90;77.80;;;;;;5072418;28;20187;-72
2023/07/28 04:31:41;;;;;;;6.13;3.60;;;18.90;77.60;;;;;;5064252;28;20477;-73
2023/07/28 04:34:07;;;;;;;5.50;3.63;;;18.90;77.60;;;;;;5069898;28;20501;-71
2023/07/28 04:36:49;;;;;;;5.77;3.87;;;18.90;77.70;;;;;;5062893;28;20682;-75
2023/07/28 04:39:15;;;;;;;7.20;3.33;;;19.00;77.70;;;;;;5068875;28;20667;-72
2023/07/28 04:41:40;;;;;;;6.60;3.77;;;19.00;77.80;;;;;;5062898;28;20476;-73
2023/07/28 04:44:06;;;;;;;6.57;3.20;;;18.90;77.80;;;;;;5070743;28;20235;-72
2023/07/28 04:46:31;;;;;;;6.20;3.97;;;19.00;78.00;;;;;;5068639;28;20517;-72
2023/07/28 04:48:57;;;;;;;5.17;3.30;;;19.00;77.80;;;;;;5070555;28;20323;-73
2023/07/28 04:51:23;;;;;;;7.07;4.30;;;19.00;78.00;;;;;;5065445;28;20226;-72
2023/07/28 04:53:48;;;;;;;4.90;3.27;;;19.00;78.00;;;;;;5068045;28;20193;-73
2023/07/28 04:56:14;;;;;;;6.30;4.03;;;19.10;78.00;;;;;;5065648;28;20609;-73
2023/07/28 04:58:39;;;;;;;7.40;4.27;;;19.00;78.40;;;;;;5069738;28;20271;-72
2023/07/28 05:01:08;;;;;;;5.23;3.70;;;18.90;78.70;;;;;;5066423;28;20203;-73
2023/07/28 05:03:33;;;;;;;6.03;3.20;;;18.80;79.20;;;;;;5069439;28;20967;-72
2023/07/28 05:05:59;;;;;;;6.40;3.70;;;18.80;79.60;;;;;;5065606;28;20435;-73
2023/07/28 05:08:24;;;;;;;6.17;4.10;;;18.90;80.00;;;;;;5070268;28;20616;-72
2023/07/28 05:10:50;;;;;;;6.87;4.33;;;19.00;80.50;;;;;;5062342;28;20212;-72
2023/07/28 05:13:15;;;;;;;6.77;4.53;;;18.90;80.20;;;;;;5064557;28;20176;-73
2023/07/28 05:15:41;;;;;;;7.33;4.10;;;18.90;80.50;;;;;;5068967;28;20229;-72
2023/07/28 05:18:07;;;;;;;5.10;3.70;;;18.90;81.10;;;;;;5065534;28;20184;-72
2023/07/28 05:20:32;;;;;;;5.40;4.17;;;19.00;80.50;;;;;;5064050;28;20210;-73
2023/07/28 05:22:58;;;;;;;6.50;3.97;;;19.00;79.70;;;;;;5075064;28;20664;-72
2023/07/28 05:25:23;;;;;;;7.67;4.27;;;18.90;79.90;;;;;;5076893;28;20196;-74
2023/07/28 05:27:49;;;;;;;7.07;4.80;;;18.90;80.00;;;;;;5073436;28;20202;-73
2023/07/28 05:30:14;;;;;;;5.07;4.07;;;18.80;80.50;;;;;;5061236;28;20676;-70
2023/07/28 05:32:40;;;;;;;6.47;4.03;;;18.70;80.80;;;;;;5067112;28;20648;-69
2023/07/28 05:35:06;;;;;;;7.57;4.37;;;18.70;80.90;;;;;;5067849;28;20663;-70
2023/07/28 05:37:32;;;;;;;7.47;4.70;;;18.70;81.10;;;;;;5068728;28;20186;-72
2023/07/28 05:39:57;;;;;;;6.27;4.03;;;18.60;81.70;;;;;;5065677;28;20506;-74
2023/07/28 05:42:24;;;;;;;6.07;4.30;;;18.50;82.10;;;;;;5062750;28;20228;-72
2023/07/28 05:44:52;;;;;;;10.67;4.07;;;18.50;81.90;;;;;;5067764;28;20228;-70
2023/07/28 05:47:17;;;;;;;4.80;3.50;;;18.50;82.20;;;;;;5066419;28;20427;-70
2023/07/28 05:49:43;;;;;;;8.07;3.80;;;18.60;81.90;;;;;;5068343;28;20514;-74
2023/07/28 05:52:08;;;;;;;7.27;4.40;;;18.60;82.20;;;;;;5066114;28;20198;-75
2023/07/28 05:54:34;;;;;;;7.60;4.33;;;18.60;82.70;;;;;;5065212;28;20256;-71
2023/07/28 05:56:59;;;;;;;12.30;7.97;;;18.60;83.30;;;;;;5072095;28;20245;-71
2023/07/28 05:59:25;;;;;;;8.10;5.87;;;18.60;83.60;;;;;;5072050;28;20672;-73
2023/07/28 06:01:50;;;;;;;6.70;4.77;;;18.60;83.70;;;;;;5070450;28;20211;-71
2023/07/28 06:04:16;;;;;;;7.77;5.13;;;18.60;84.30;;;;;;5074054;28;20185;-72
2023/07/28 06:06:42;;;;;;;11.03;5.63;;;18.60;84.70;;;;;;5072508;28;20367;-73
2023/07/28 06:09:07;;;;;;;9.10;5.07;;;18.60;85.00;;;;;;5075679;28;20286;-73
2023/07/28 06:11:33;;;;;;;12.00;5.63;;;18.60;85.30;;;;;;5071260;28;20202;-74
2023/07/28 06:13:58;;;;;;;8.00;4.93;;;18.70;85.30;;;;;;5075107;28;20202;-73
2023/07/28 06:16:24;;;;;;;9.37;5.20;;;18.60;85.50;;;;;;5072208;28;20754;-72
2023/07/28 06:18:50;;;;;;;11.57;6.33;;;18.50;85.90;;;;;;5072505;28;20189;-74
2023/07/28 06:21:15;;;;;;;7.80;5.27;;;18.60;86.30;;;;;;5069357;28;20210;-73
2023/07/28 06:23:41;;;;;;;10.83;6.13;;;18.70;86.80;;;;;;5072197;28;20523;-76
2023/07/28 06:26:07;;;;;;;16.30;6.90;;;18.70;86.60;;;;;;5071463;28;20199;-72
2023/07/28 06:28:32;;;;;;;9.50;5.40;;;18.70;87.00;;;;;;5072449;28;20189;-72
2023/07/28 06:30:58;;;;;;;7.40;5.27;;;18.70;87.30;;;;;;5063654;28;20206;-74
2023/07/28 06:33:28;;;;;;;13.87;6.10;;;18.80;87.40;;;;;;5071704;28;20210;-72
2023/07/28 06:35:54;;;;;;;14.50;6.73;;;18.80;87.60;;;;;;5071531;28;20581;-72
2023/07/28 06:38:20;;;;;;;12.20;7.23;;;18.50;87.30;;;;;;5071848;28;20578;-72
2023/07/28 06:40:45;;;;;;;11.77;6.10;;;18.40;87.60;;;;;;5063014;28;20688;-72
2023/07/28 06:43:11;;;;;;;8.13;5.73;;;18.50;88.00;;;;;;5071501;28;20252;-72
2023/07/28 06:45:36;;;;;;;9.70;5.97;;;18.60;88.10;;;;;;5066699;28;20307;-72
2023/07/28 06:48:03;;;;;;;13.07;7.10;;;18.80;87.70;;;;;;5072264;28;20674;-73
2023/07/28 06:50:28;;;;;;;9.97;6.07;;;18.90;86.80;;;;;;5051851;28;20831;-73
2023/07/28 06:52:54;;;;;;;9.70;5.73;;;19.00;86.30;;;;;;5070370;28;20418;-73
2023/07/28 06:55:21;;;;;;;9.20;4.90;;;19.10;86.20;;;;;;5071773;28;20682;-72
2023/07/28 06:57:47;;;;;;;9.20;5.10;;;19.10;86.50;;;;;;5071661;28;20200;-73
2023/07/28 07:00:14;;;;;;;7.20;5.00;;;19.30;86.50;;;;;;5067087;28;20476;-72
2023/07/28 07:02:40;;;;;;;9.73;5.17;;;19.40;86.60;;;;;;5070599;28;20923;-73
2023/07/28 07:05:06;;;;;;;6.43;4.60;;;19.50;86.30;;;;;;5070492;28;20648;-72
2023/07/28 07:07:32;;;;;;;7.70;4.03;;;19.70;85.60;;;;;;5071509;28;20437;-73
2023/07/28 07:09:58;;;;;;;7.57;5.13;;;19.80;84.60;;;;;;5068521;28;20434;-73
2023/07/28 07:12:24;;;;;;;8.43;4.50;;;19.90;83.60;;;;;;5069372;28;20425;-73
2023/07/28 07:14:49;;;;;;;7.57;4.60;;;19.90;83.30;;;;;;5072452;28;20562;-72
2023/07/28 07:17:15;;;;;;;8.70;4.60;;;20.00;83.00;;;;;;5072387;28;20300;-71
2023/07/28 07:19:41;;;;;;;7.50;4.60;;;20.10;82.50;;;;;;5071734;28;20224;-72
2023/07/28 07:22:06;;;;;;;11.73;6.17;;;20.10;82.40;;;;;;5051741;28;20682;-71
2023/07/28 07:24:32;;;;;;;8.67;5.27;;;20.20;81.40;;;;;;5069384;28;20176;-73
2023/07/28 07:26:58;;;;;;;8.50;5.23;;;20.30;80.50;;;;;;5072209;28;20199;-72
2023/07/28 07:29:24;;;;;;;8.13;4.80;;;20.40;79.90;;;;;;5071899;28;20883;-72
2023/07/28 07:31:54;;;;;;;10.30;6.07;;;20.40;79.70;;;;;;5068008;28;20254;-72
2023/07/28 07:34:20;;;;;;;9.70;4.97;;;20.50;79.30;;;;;;5067636;28;20195;-72
2023/07/28 07:36:46;;;;;;;7.73;4.70;;;20.40;78.70;;;;;;5066576;28;20941;-72
2023/07/28 07:39:11;;;;;;;7.03;4.43;;;20.70;78.90;;;;;;5072918;28;20534;-72
2023/07/28 07:41:37;;;;;;;5.73;4.10;;;20.90;77.80;;;;;;5068768;28;20219;-72
2023/07/28 07:44:03;;;;;;;6.57;4.43;;;21.20;76.50;;;;;;5071988;28;20185;-72
2023/07/28 07:46:28;;;;;;;7.90;4.83;;;21.40;75.70;;;;;;5070859;28;20577;-73
2023/07/28 07:48:54;;;;;;;5.80;4.00;;;21.40;75.10;;;;;;5067106;28;20257;-72
2023/07/28 07:51:20;;;;;;;7.70;4.13;;;21.20;75.50;;;;;;5062512;28;20256;-73
2023/07/28 07:53:45;;;;;;;10.80;5.00;;;21.30;75.80;;;;;;5071855;28;20197;-73
2023/07/28 07:56:11;;;;;;;5.73;4.20;;;21.20;75.70;;;;;;5069304;28;20221;-73
2023/07/28 07:58:37;;;;;;;5.83;4.27;;;21.30;76.20;;;;;;5071379;28;20651;-73
2023/07/28 08:01:04;;;;;;;11.20;5.20;;;21.30;76.20;;;;;;5063685;28;20464;-72
2023/07/28 08:03:31;;;;;;;7.10;5.10;;;21.10;76.10;;;;;;5072183;28;20189;-72
2023/07/28 08:05:57;;;;;;;8.93;5.10;;;21.10;76.50;;;;;;5071201;28;20457;-73
2023/07/28 08:08:23;;;;;;;8.20;5.37;;;20.90;76.20;;;;;;5072964;28;20543;-72
2023/07/28 08:10:52;;;;;;;8.03;4.90;;;21.10;76.50;;;;;;5066582;28;20472;-73
2023/07/28 08:13:17;;;;;;;8.53;5.10;;;21.00;76.10;;;;;;5070896;28;20197;-73
2023/07/28 08:15:44;;;;;;;8.77;4.87;;;20.90;76.10;;;;;;5069718;28;20540;-72
2023/07/28 08:18:10;;;;;;;9.13;4.70;;;21.10;76.40;;;;;;5071490;28;20289;-74
2023/07/28 08:20:36;;;;;;;10.10;4.47;;;21.40;76.70;;;;;;5066958;28;21068;-71
2023/07/28 08:23:01;;;;;;;7.40;3.93;;;21.50;76.40;;;;;;5070008;28;20421;-72
2023/07/28 08:25:27;;;;;;;14.57;5.40;;;21.60;76.10;;;;;;5064946;28;20665;-72
2023/07/28 08:27:53;;;;;;;8.90;4.00;;;21.60;75.80;;;;;;5070327;28;20552;-72
2023/07/28 08:30:18;;;;;;;12.70;5.57;;;21.50;75.50;;;;;;5063916;28;20229;-72
2023/07/28 08:32:44;;;;;;;9.50;4.83;;;21.30;74.80;;;;;;5070902;28;20319;-72
2023/07/28 08:35:10;;;;;;;10.63;6.00;;;21.10;75.40;;;;;;5063661;28;20217;-71
2023/07/28 08:37:36;;;;;;;9.13;4.93;;;21.10;76.50;;;;;;5070447;28;20190;-71
2023/07/28 08:40:04;;;;;;;7.13;5.23;;;21.20;76.80;;;;;;5066654;28;20828;-71
2023/07/28 08:42:36;;;;;;;8.37;4.70;;;21.20;76.40;;;;;;5071309;28;20425;-73
2023/07/28 08:45:08;;;;;;;7.47;4.60;;;21.30;76.40;;;;;;5073023;28;20955;-72
2023/07/28 08:47:34;;;;;;;11.23;5.67;;;21.30;75.80;;;;;;5069450;28;20948;-72
2023/07/28 08:50:00;;;;;;;8.80;4.70;;;21.20;75.50;;;;;;5072271;28;20464;-73
2023/07/28 08:52:26;;;;;;;10.57;4.90;;;21.20;75.80;;;;;;5068105;28;20448;-72
2023/07/28 08:54:51;;;;;;;11.43;4.77;;;21.40;75.90;;;;;;5054167;28;20637;-71
2023/07/28 08:57:19;;;;;;;8.53;5.30;;;21.70;75.50;;;;;;5071260;28;20213;-72
2023/07/28 09:00:17;;;;;;;6.97;4.60;;;22.00;75.50;;;;;;5073221;28;20197;-71
2023/07/28 09:02:44;;;;;;;6.97;4.10;;;22.20;74.00;;;;;;4958374;28;20449;-72
2023/07/28 09:05:23;;;;;;;6.30;4.10;;;22.40;73.60;;;;;;4955973;28;20617;-72
2023/07/28 09:07:49;;;;;;;20.00;4.40;;;22.50;73.30;;;;;;4955957;28;20976;-72
2023/07/28 09:10:15;;;;;;;6.93;4.73;;;22.60;73.20;;;;;;4958366;28;20499;-72
2023/07/28 09:12:50;;;;;;;11.03;5.50;;;22.70;72.70;;;;;;4971647;28;20203;-73
2023/07/28 09:15:16;;;;;;;7.43;5.30;;;22.70;72.40;;;;;;4964794;28;20307;-71
2023/07/28 09:17:45;;;;;;;6.17;4.33;;;22.80;72.10;;;;;;4965869;28;20972;-73
2023/07/28 09:20:15;;;;;;;8.00;4.30;;;22.80;72.00;;;;;;4956077;28;20226;-72
2023/07/28 09:22:41;;;;;;;8.93;4.97;;;22.80;71.80;;;;;;4959586;28;20432;-71
2023/07/28 09:25:14;;;;;;;8.00;5.30;;;22.70;71.80;;;;;;4958781;28;20435;-73
2023/07/28 09:27:41;;;;;;;10.87;5.97;;;22.60;72.40;;;;;;4962247;28;20435;-72
2023/07/28 09:30:07;;;;;;;10.13;5.77;;;22.40;73.00;;;;;;4967525;28;20464;-71
2023/07/28 09:32:35;;;;;;;13.20;6.73;;;22.20;73.70;;;;;;4964283;28;20506;-73
2023/07/28 09:35:12;;;;;;;10.07;5.60;;;22.00;74.60;;;;;;4955469;28;21019;-74
2023/07/28 09:37:43;;;;;;;13.07;5.37;;;22.10;74.80;;;;;;4956572;28;20452;-74
2023/07/28 09:40:18;;;;;;;10.27;5.70;;;22.20;74.50;;;;;;4958505;28;20499;-72
2023/07/28 09:42:49;;;;;;;10.37;5.93;;;22.30;74.20;;;;;;4966838;28;20440;-73
2023/07/28 09:45:16;;;;;;;9.53;5.23;;;22.30;73.70;;;;;;4961932;28;20894;-73
2023/07/28 09:47:47;;;;;;;11.13;5.60;;;22.40;73.60;;;;;;4967035;28;20447;-73
2023/07/28 09:50:18;;;;;;;9.17;5.90;;;22.50;73.30;;;;;;4962942;28;20505;-72
2023/07/28 09:52:47;;;;;;;9.57;5.47;;;22.50;73.00;;;;;;4963036;28;20433;-73
2023/07/28 09:55:15;;;;;;;9.07;5.47;;;22.60;72.90;;;;;;4961650;28;20505;-72
2023/07/28 09:58:06;;;;;;;11.87;5.70;;;22.50;72.30;;;;;;4964449;28;20450;-74
2023/07/28 10:00:33;;;;;;;9.27;5.50;;;22.50;72.40;;;;;;4935546;29;20500;-73
2023/07/28 10:02:59;;;;;;;8.03;5.40;;;22.40;72.60;;;;;;4930639;29;20431;-73
2023/07/28 10:05:29;;;;;;;6.83;4.60;;;22.50;72.70;;;;;;4936396;29;20452;-73
2023/07/28 10:07:56;;;;;;;9.10;5.60;;;22.50;72.60;;;;;;4933757;29;20439;-72
2023/07/28 10:10:22;;;;;;;11.13;5.50;;;22.70;72.10;;;;;;4934544;29;20552;-74
2023/07/28 10:12:52;;;;;;;8.30;4.83;;;22.80;71.80;;;;;;4933732;29;20553;-74
2023/07/28 10:15:20;;;;;;;7.23;4.47;;;22.80;71.00;;;;;;4931741;29;21061;-71
2023/07/28 10:17:59;;;;;;;7.40;4.40;;;22.80;71.00;;;;;;4935127;29;21514;-73
2023/07/28 10:20:34;;;;;;;5.93;4.20;;;22.60;71.60;;;;;;4933822;29;21151;-72
2023/07/28 10:23:24;;;;;;;6.77;4.30;;;22.80;71.00;;;;;;4926809;29;20493;-73
2023/07/28 10:26:00;;;;;;;7.50;4.57;;;23.00;71.10;;;;;;4930905;29;20451;-73
2023/07/28 10:28:31;;;;;;;8.73;4.10;;;23.20;71.10;;;;;;4935412;29;20438;-74
2023/07/28 10:31:06;;;;;;;7.20;4.10;;;23.30;70.80;;;;;;4940453;28;20468;-73
2023/07/28 10:33:44;;;;;;;7.20;4.37;;;23.30;70.10;;;;;;4959970;28;20443;-74
2023/07/28 10:36:36;;;;;;;10.30;4.43;;;23.40;69.70;;;;;;4960891;28;20499;-73
2023/07/28 10:39:18;;;;;;;7.67;4.07;;;23.40;69.50;;;;;;4956619;28;20555;-72
2023/07/28 10:42:08;;;;;;;8.67;4.67;;;23.40;69.10;;;;;;4967979;28;20476;-72
2023/07/28 10:44:35;;;;;;;7.73;3.77;;;23.50;69.20;;;;;;4955443;28;20446;-74
2023/07/28 10:47:01;;;;;;;4.90;3.80;;;23.30;68.80;;;;;;4964812;28;20443;-72
2023/07/28 10:49:28;;;;;;;5.70;4.73;;;23.30;69.40;;;;;;4958653;28;20958;-73
2023/07/28 10:51:54;;;;;;;8.00;4.30;;;23.30;69.40;;;;;;4961167;28;20561;-73
2023/07/28 10:54:22;;;;;;;6.13;3.60;;;22.90;69.70;;;;;;4959133;28;20972;-73
2023/07/28 10:56:48;;;;;;;6.67;3.77;;;22.80;70.70;;;;;;4959423;28;20454;-72
2023/07/28 10:59:15;;;;;;;6.47;3.70;;;23.10;70.20;;;;;;4958084;28;20664;-73
2023/07/28 11:01:41;;;;;;;8.93;3.70;;;23.40;69.50;;;;;;4959701;28;20468;-73
2023/07/28 11:04:12;;;;;;;5.27;3.63;;;23.50;67.60;;;;;;4959586;28;20467;-72
2023/07/28 11:06:39;;;;;;;5.40;3.33;;;23.30;68.50;;;;;;4958717;28;20424;-73
2023/07/28 11:09:09;;;;;;;9.20;3.80;;;23.10;68.50;;;;;;4961515;28;20459;-75
2023/07/28 11:11:36;;;;;;;4.37;3.53;;;23.10;69.10;;;;;;4958350;28;20553;-72
2023/07/28 11:14:05;;;;;;;3.63;2.40;;;23.70;68.30;;;;;;4952487;28;20442;-72
2023/07/28 11:16:32;;;;;;;3.60;2.10;;;23.70;66.10;;;;;;4955107;28;20485;-73
2023/07/28 11:19:02;;;;;;;3.90;2.70;;;23.60;66.00;;;;;;4957179;28;20978;-72
2023/07/28 11:21:29;;;;;;;4.93;2.50;;;23.30;67.30;;;;;;4953681;28;20469;-73
2023/07/28 11:23:54;;;;;;;2.83;2.37;;;23.30;67.60;;;;;;4957974;28;20430;-74
2023/07/28 11:26:23;;;;;;;3.70;1.97;;;23.40;66.70;;;;;;4955056;28;20452;-74
2023/07/28 11:28:49;;;;;;;3.70;2.40;;;23.70;66.40;;;;;;4957672;28;20300;-73
2023/07/28 11:31:14;;;;;;;3.80;1.90;;;23.70;65.60;;;;;;4953329;28;20493;-72
2023/07/28 11:33:41;;;;;;;2.10;1.80;;;23.60;65.40;;;;;;4962038;28;20723;-73
2023/07/28 11:36:06;;;;;;;2.33;1.70;;;23.30;66.40;;;;;;4964370;28;20231;-76
2023/07/28 11:38:35;;;;;;;4.97;2.00;;;23.60;66.00;;;;;;4967452;28;20432;-73
2023/07/28 11:41:02;;;;;;;2.57;2.17;;;23.60;65.70;;;;;;4961401;28;20715;-72
2023/07/28 11:43:28;;;;;;;2.33;1.83;;;23.60;65.40;;;;;;4959458;28;20431;-70
2023/07/28 11:45:54;;;;;;;4.90;3.17;;;23.90;64.40;;;;;;4961084;28;20515;-71
2023/07/28 11:48:20;;;;;;;4.33;2.40;;;23.90;65.00;;;;;;4965782;28;20958;-71
2023/07/28 11:50:46;;;;;;;3.90;2.53;;;24.00;64.20;;;;;;4962669;28;20255;-71
2023/07/28 11:53:12;;;;;;;3.33;2.20;;;24.20;65.00;;;;;;4961763;28;20476;-71
2023/07/28 11:55:58;;;;;;;3.53;2.43;;;24.50;63.20;;;;;;4957494;28;20480;-74
2023/07/28 11:58:25;;;;;;;4.30;1.80;;;24.70;62.60;;;;;;4962307;28;20203;-71
2023/07/28 12:00:51;;;;;;;2.70;1.93;;;24.20;63.90;;;;;;4966247;28;20477;-73
2023/07/28 12:03:17;;;;;;;3.83;1.90;;;23.90;65.00;;;;;;4967159;28;20476;-75
2023/07/28 12:06:02;;;;;;;4.20;2.23;;;24.20;65.10;;;;;;4950898;28;20622;-74
2023/07/28 12:08:34;;;;;;;5.53;2.37;;;24.20;64.70;;;;;;4952172;28;20212;-74
2023/07/28 12:11:03;;;;;;;3.40;2.50;;;24.10;65.40;;;;;;4958177;28;20477;-74
2023/07/28 12:13:28;;;;;;;4.67;3.13;;;23.70;66.10;;;;;;4965892;28;20435;-74
2023/07/28 12:15:54;;;;;;;4.57;2.60;;;23.20;67.60;;;;;;5075427;28;20483;-74
2023/07/28 12:18:22;;;;;;;4.63;2.77;;;22.90;68.30;;;;;;5075857;28;20182;-73
2023/07/28 12:20:51;;;;;;;4.47;3.07;;;22.70;68.60;;;;;;5071327;28;20302;-74
2023/07/28 12:23:19;;;;;;;4.90;2.87;;;22.70;68.30;;;;;;5072392;28;20441;-75
2023/07/28 12:25:46;;;;;;;4.93;3.03;;;22.70;68.80;;;;;;5069059;28;20451;-75
2023/07/28 12:28:11;;;;;;;5.40;2.93;;;22.70;69.70;;;;;;5072057;28;20438;-74
2023/07/28 12:30:43;;;;;;;5.03;2.67;;;22.70;69.70;;;;;;5070168;28;20469;-74
2023/07/28 12:33:09;;;;;;;5.20;3.13;;;22.70;69.90;;;;;;5053178;28;20756;-76
2023/07/28 12:35:35;;;;;;;5.30;3.20;;;22.90;69.10;;;;;;5072786;28;20500;-74
2023/07/28 12:38:11;;;;;;;4.40;2.70;;;23.00;68.00;;;;;;5071458;28;20429;-74
2023/07/28 12:40:36;;;;;;;5.00;3.30;;;23.10;67.90;;;;;;5057754;28;20490;-75
2023/07/28 12:43:03;;;;;;;4.23;2.70;;;23.20;67.20;;;;;;5073954;28;20951;-75
2023/07/28 12:45:29;;;;;;;6.10;3.50;;;23.20;67.30;;;;;;5068603;28;20187;-75